sensor_id;sensor_type;location;lat;lon;timestamp;temperature;humidity
24472;DHT22;12636;50.852;5.676;2024-01-30T00:02:15;9.10;1.00
24472;DHT22;12636;50.852;5.676;2024-01-30T00:04:43;9.10;1.00
24472;DHT22;12636;50.852;5.676;2024-01-30T00:07:10;9.10;1.00
24472;DHT22;12636;50.852;5.676;2024-01-30T00:09:38;9.10;1.00
24472;DHT22;12636;50.852;5.676;2024-01-30T00:12:05;9.10;1.00
24472;DHT22;12636;50.852;5.676;2024-01-30T00:14:32;9.10;1.00
24472;DHT22;12636;50.852;5.676;2024-01-30T00:16:59;9.00;1.00
24472;DHT22;12636;50.852;5.676;2024-01-30T00:19:26;9.00;1.00
24472;DHT22;12636;50.852;5.676;2024-01-30T00:21:54;9.00;1.00
24472;DHT22;12636;50.852;5.676;2024-01-30T00:24:21;9.10;1.00
24472;DHT22;12636;50.852;5.676;2024-01-30T00:26:48;9.10;1.00
24472;DHT22;12636;50.852;5.676;2024-01-30T00:29:15;9.10;1.00
24472;DHT22;12636;50.852;5.676;2024-01-30T00:31:44;9.10;1.00
24472;DHT22;12636;50.852;5.676;2024-01-30T00:34:11;9.10;1.00
24472;DHT22;12636;50.852;5.676;2024-01-30T00:36:38;9.10;1.00
24472;DHT22;12636;50.852;5.676;2024-01-30T00:39:07;9.10;1.00
24472;DHT22;12636;50.852;5.676;2024-01-30T00:41:35;9.20;1.00
24472;DHT22;12636;50.852;5.676;2024-01-30T00:44:01;9.20;1.00
24472;DHT22;12636;50.852;5.676;2024-01-30T00:46:28;9.20;1.00
24472;DHT22;12636;50.852;5.676;2024-01-30T00:48:55;9.20;1.00
24472;DHT22;12636;50.852;5.676;2024-01-30T00:51:22;9.20;1.00
24472;DHT22;12636;50.852;5.676;2024-01-30T00:53:49;9.20;1.00
24472;DHT22;12636;50.852;5.676;2024-01-30T00:56:18;9.10;1.00
24472;DHT22;12636;50.852;5.676;2024-01-30T00:58:45;9.20;1.00
24472;DHT22;12636;50.852;5.676;2024-01-30T01:01:12;9.20;1.00
24472;DHT22;12636;50.852;5.676;2024-01-30T01:03:40;9.20;1.00
24472;DHT22;12636;50.852;5.676;2024-01-30T01:06:09;9.30;1.00
24472;DHT22;12636;50.852;5.676;2024-01-30T01:08:36;9.20;1.00
24472;DHT22;12636;50.852;5.676;2024-01-30T01:11:02;9.20;1.00
24472;DHT22;12636;50.852;5.676;2024-01-30T01:13:31;9.30;1.00
24472;DHT22;12636;50.852;5.676;2024-01-30T01:15:58;9.20;1.00
24472;DHT22;12636;50.852;5.676;2024-01-30T01:18:24;9.30;1.00
24472;DHT22;12636;50.852;5.676;2024-01-30T01:20:52;9.30;1.00
24472;DHT22;12636;50.852;5.676;2024-01-30T01:23:19;9.20;1.00
24472;DHT22;12636;50.852;5.676;2024-01-30T01:25:46;9.20;1.00
24472;DHT22;12636;50.852;5.676;2024-01-30T01:28:13;9.20;1.00
24472;DHT22;12636;50.852;5.676;2024-01-30T01:30:41;9.20;1.00
24472;DHT22;12636;50.852;5.676;2024-01-30T01:33:08;9.20;1.00
24472;DHT22;12636;50.852;5.676;2024-01-30T01:35:35;9.30;1.00
24472;DHT22;12636;50.852;5.676;2024-01-30T01:38:02;9.40;1.00
24472;DHT22;12636;50.852;5.676;2024-01-30T01:40:29;9.50;1.00
24472;DHT22;12636;50.852;5.676;2024-01-30T01:42:56;9.40;1.00
24472;DHT22;12636;50.852;5.676;2024-01-30T01:45:23;9.40;1.00
24472;DHT22;12636;50.852;5.676;2024-01-30T01:47:52;9.50;1.00
24472;DHT22;12636;50.852;5.676;2024-01-30T01:50:19;9.50;1.00
24472;DHT22;12636;50.852;5.676;2024-01-30T01:52:47;9.50;99.90
24472;DHT22;12636;50.852;5.676;2024-01-30T01:55:14;9.40;99.90
24472;DHT22;12636;50.852;5.676;2024-01-30T01:57:42;9.50;1.00
24472;DHT22;12636;50.852;5.676;2024-01-30T02:00:10;9.60;99.90
24472;DHT22;12636;50.852;5.676;2024-01-30T02:02:37;9.60;99.90
24472;DHT22;12636;50.852;5.676;2024-01-30T02:05:07;9.70;99.90
24472;DHT22;12636;50.852;5.676;2024-01-30T02:07:34;9.70;99.90
24472;DHT22;12636;50.852;5.676;2024-01-30T02:10:01;9.70;99.90
24472;DHT22;12636;50.852;5.676;2024-01-30T02:12:29;9.70;99.90
24472;DHT22;12636;50.852;5.676;2024-01-30T02:14:56;9.70;99.90
24472;DHT22;12636;50.852;5.676;2024-01-30T02:17:23;9.70;99.90
24472;DHT22;12636;50.852;5.676;2024-01-30T02:19:50;9.70;99.90
24472;DHT22;12636;50.852;5.676;2024-01-30T02:22:18;9.70;99.90
24472;DHT22;12636;50.852;5.676;2024-01-30T02:24:45;9.80;99.90
24472;DHT22;12636;50.852;5.676;2024-01-30T02:27:12;9.90;99.90
24472;DHT22;12636;50.852;5.676;2024-01-30T02:29:39;9.90;99.90
24472;DHT22;12636;50.852;5.676;2024-01-30T02:32:06;9.90;99.90
24472;DHT22;12636;50.852;5.676;2024-01-30T02:34:33;9.90;20.60
24472;DHT22;12636;50.852;5.676;2024-01-30T02:37:00;9.90;99.90
24472;DHT22;12636;50.852;5.676;2024-01-30T02:39:29;9.90;99.90
24472;DHT22;12636;50.852;5.676;2024-01-30T02:41:56;10.00;69.00
24472;DHT22;12636;50.852;5.676;2024-01-30T02:44:23;10.00;8.20
24472;DHT22;12636;50.852;5.676;2024-01-30T02:46:50;10.10;1.00
24472;DHT22;12636;50.852;5.676;2024-01-30T02:49:16;10.00;23.00
24472;DHT22;12636;50.852;5.676;2024-01-30T02:51:43;10.00;65.70
24472;DHT22;12636;50.852;5.676;2024-01-30T02:54:10;10.00;93.10
24472;DHT22;12636;50.852;5.676;2024-01-30T02:56:38;10.00;99.90
24472;DHT22;12636;50.852;5.676;2024-01-30T02:59:05;9.90;99.90
24472;DHT22;12636;50.852;5.676;2024-01-30T03:01:32;9.90;99.90
24472;DHT22;12636;50.852;5.676;2024-01-30T03:03:59;10.00;70.90
24472;DHT22;12636;50.852;5.676;2024-01-30T03:06:26;9.90;99.90
24472;DHT22;12636;50.852;5.676;2024-01-30T03:08:53;9.90;99.90
24472;DHT22;12636;50.852;5.676;2024-01-30T03:11:20;9.90;99.90
24472;DHT22;12636;50.852;5.676;2024-01-30T03:13:48;10.00;99.90
24472;DHT22;12636;50.852;5.676;2024-01-30T03:16:15;10.00;99.90
24472;DHT22;12636;50.852;5.676;2024-01-30T03:18:42;9.90;99.90
24472;DHT22;12636;50.852;5.676;2024-01-30T03:21:09;9.90;99.90
24472;DHT22;12636;50.852;5.676;2024-01-30T03:23:35;10.00;99.90
24472;DHT22;12636;50.852;5.676;2024-01-30T03:26:02;10.00;99.90
24472;DHT22;12636;50.852;5.676;2024-01-30T03:28:32;9.90;99.90
24472;DHT22;12636;50.852;5.676;2024-01-30T03:31:00;10.00;99.90
24472;DHT22;12636;50.852;5.676;2024-01-30T03:33:27;10.00;99.90
24472;DHT22;12636;50.852;5.676;2024-01-30T03:35:54;10.00;99.90
24472;DHT22;12636;50.852;5.676;2024-01-30T03:38:21;10.10;99.90
24472;DHT22;12636;50.852;5.676;2024-01-30T03:40:48;10.10;99.90
24472;DHT22;12636;50.852;5.676;2024-01-30T03:43:15;10.10;99.90
24472;DHT22;12636;50.852;5.676;2024-01-30T03:45:41;10.20;99.90
24472;DHT22;12636;50.852;5.676;2024-01-30T03:48:10;10.30;1.00
24472;DHT22;12636;50.852;5.676;2024-01-30T03:50:37;10.30;1.00
24472;DHT22;12636;50.852;5.676;2024-01-30T03:53:03;10.20;32.90
24472;DHT22;12636;50.852;5.676;2024-01-30T03:55:30;10.20;99.90
24472;DHT22;12636;50.852;5.676;2024-01-30T03:57:57;10.20;99.90
24472;DHT22;12636;50.852;5.676;2024-01-30T04:00:24;10.20;99.90
24472;DHT22;12636;50.852;5.676;2024-01-30T04:02:51;10.20;99.90
24472;DHT22;12636;50.852;5.676;2024-01-30T04:05:19;10.20;99.90
24472;DHT22;12636;50.852;5.676;2024-01-30T04:07:46;10.00;99.90
24472;DHT22;12636;50.852;5.676;2024-01-30T04:10:13;10.20;99.90
24472;DHT22;12636;50.852;5.676;2024-01-30T04:12:40;10.30;99.90
24472;DHT22;12636;50.852;5.676;2024-01-30T04:15:07;10.30;99.90
24472;DHT22;12636;50.852;5.676;2024-01-30T04:17:34;10.30;99.90
24472;DHT22;12636;50.852;5.676;2024-01-30T04:20:01;10.50;1.00
24472;DHT22;12636;50.852;5.676;2024-01-30T04:22:30;10.50;1.00
24472;DHT22;12636;50.852;5.676;2024-01-30T04:24:56;10.60;1.00
24472;DHT22;12636;50.852;5.676;2024-01-30T04:27:23;10.60;1.00
24472;DHT22;12636;50.852;5.676;2024-01-30T04:29:50;10.50;1.00
24472;DHT22;12636;50.852;5.676;2024-01-30T04:32:17;10.40;1.00
24472;DHT22;12636;50.852;5.676;2024-01-30T04:34:43;10.40;1.00
24472;DHT22;12636;50.852;5.676;2024-01-30T04:37:10;10.40;1.00
24472;DHT22;12636;50.852;5.676;2024-01-30T04:39:38;10.40;8.10
24472;DHT22;12636;50.852;5.676;2024-01-30T04:42:06;10.40;1.00
24472;DHT22;12636;50.852;5.676;2024-01-30T04:44:33;10.40;1.00
24472;DHT22;12636;50.852;5.676;2024-01-30T04:47:00;10.30;66.20
24472;DHT22;12636;50.852;5.676;2024-01-30T04:49:27;10.30;99.90
24472;DHT22;12636;50.852;5.676;2024-01-30T04:51:54;10.30;99.90
24472;DHT22;12636;50.852;5.676;2024-01-30T04:54:21;10.20;99.90
24472;DHT22;12636;50.852;5.676;2024-01-30T04:56:49;10.20;99.90
24472;DHT22;12636;50.852;5.676;2024-01-30T04:59:16;10.30;99.90
24472;DHT22;12636;50.852;5.676;2024-01-30T05:01:43;10.40;99.90
24472;DHT22;12636;50.852;5.676;2024-01-30T05:04:10;10.50;73.40
24472;DHT22;12636;50.852;5.676;2024-01-30T05:06:37;10.50;17.10
24472;DHT22;12636;50.852;5.676;2024-01-30T05:09:06;10.60;1.00
24472;DHT22;12636;50.852;5.676;2024-01-30T05:11:36;10.50;1.00
24472;DHT22;12636;50.852;5.676;2024-01-30T05:14:05;10.50;1.00
24472;DHT22;12636;50.852;5.676;2024-01-30T05:16:32;10.50;1.00
24472;DHT22;12636;50.852;5.676;2024-01-30T05:18:59;10.50;3.60
24472;DHT22;12636;50.852;5.676;2024-01-30T05:21:26;10.50;40.00
24472;DHT22;12636;50.852;5.676;2024-01-30T05:23:53;10.40;99.90
24472;DHT22;12636;50.852;5.676;2024-01-30T05:26:20;10.50;99.90
24472;DHT22;12636;50.852;5.676;2024-01-30T05:28:48;10.40;99.90
24472;DHT22;12636;50.852;5.676;2024-01-30T05:31:16;10.40;99.90
24472;DHT22;12636;50.852;5.676;2024-01-30T05:33:43;10.30;99.90
24472;DHT22;12636;50.852;5.676;2024-01-30T05:36:11;10.30;99.90
24472;DHT22;12636;50.852;5.676;2024-01-30T05:38:38;10.30;99.90
24472;DHT22;12636;50.852;5.676;2024-01-30T05:41:05;10.30;99.90
24472;DHT22;12636;50.852;5.676;2024-01-30T05:43:32;10.30;99.90
24472;DHT22;12636;50.852;5.676;2024-01-30T05:45:59;10.30;99.90
24472;DHT22;12636;50.852;5.676;2024-01-30T05:48:27;10.30;99.90
24472;DHT22;12636;50.852;5.676;2024-01-30T05:50:54;10.30;1.00
24472;DHT22;12636;50.852;5.676;2024-01-30T05:53:22;10.30;1.00
24472;DHT22;12636;50.852;5.676;2024-01-30T05:55:48;10.20;1.00
24472;DHT22;12636;50.852;5.676;2024-01-30T05:58:15;10.30;1.00
24472;DHT22;12636;50.852;5.676;2024-01-30T06:00:42;10.40;1.00
24472;DHT22;12636;50.852;5.676;2024-01-30T06:03:09;10.40;99.90
24472;DHT22;12636;50.852;5.676;2024-01-30T06:05:37;10.40;99.90
24472;DHT22;12636;50.852;5.676;2024-01-30T06:08:05;10.30;1.00
24472;DHT22;12636;50.852;5.676;2024-01-30T06:10:32;10.40;1.00
24472;DHT22;12636;50.852;5.676;2024-01-30T06:12:58;10.40;1.00
24472;DHT22;12636;50.852;5.676;2024-01-30T06:15:26;10.40;1.00
24472;DHT22;12636;50.852;5.676;2024-01-30T06:17:55;10.40;1.00
24472;DHT22;12636;50.852;5.676;2024-01-30T06:20:22;10.40;1.00
24472;DHT22;12636;50.852;5.676;2024-01-30T06:22:50;10.40;1.00
24472;DHT22;12636;50.852;5.676;2024-01-30T06:25:17;10.40;1.00
24472;DHT22;12636;50.852;5.676;2024-01-30T06:27:44;10.40;1.00
24472;DHT22;12636;50.852;5.676;2024-01-30T06:30:11;10.50;1.00
24472;DHT22;12636;50.852;5.676;2024-01-30T06:32:38;10.40;1.00
24472;DHT22;12636;50.852;5.676;2024-01-30T06:35:05;10.40;1.00
24472;DHT22;12636;50.852;5.676;2024-01-30T06:37:32;10.40;1.00
24472;DHT22;12636;50.852;5.676;2024-01-30T06:40:00;10.40;1.00
24472;DHT22;12636;50.852;5.676;2024-01-30T06:42:28;10.50;1.00
24472;DHT22;12636;50.852;5.676;2024-01-30T06:44:54;10.50;1.00
24472;DHT22;12636;50.852;5.676;2024-01-30T06:47:21;10.50;1.00
24472;DHT22;12636;50.852;5.676;2024-01-30T06:49:48;10.50;1.00
24472;DHT22;12636;50.852;5.676;2024-01-30T06:52:15;10.60;1.00
24472;DHT22;12636;50.852;5.676;2024-01-30T06:54:42;10.70;1.00
24472;DHT22;12636;50.852;5.676;2024-01-30T06:57:10;10.80;99.90
24472;DHT22;12636;50.852;5.676;2024-01-30T06:59:39;10.80;99.90
24472;DHT22;12636;50.852;5.676;2024-01-30T07:02:08;10.90;99.90
24472;DHT22;12636;50.852;5.676;2024-01-30T07:04:35;10.90;99.90
24472;DHT22;12636;50.852;5.676;2024-01-30T07:07:04;10.90;99.90
24472;DHT22;12636;50.852;5.676;2024-01-30T07:09:37;10.90;99.90
24472;DHT22;12636;50.852;5.676;2024-01-30T07:12:04;10.90;99.90
24472;DHT22;12636;50.852;5.676;2024-01-30T07:14:33;11.00;99.90
24472;DHT22;12636;50.852;5.676;2024-01-30T07:16:59;11.00;99.90
24472;DHT22;12636;50.852;5.676;2024-01-30T07:19:27;11.00;99.90
24472;DHT22;12636;50.852;5.676;2024-01-30T07:21:54;10.90;99.90
24472;DHT22;12636;50.852;5.676;2024-01-30T07:24:21;10.90;99.90
24472;DHT22;12636;50.852;5.676;2024-01-30T07:26:47;11.00;99.90
24472;DHT22;12636;50.852;5.676;2024-01-30T07:29:14;10.90;99.90
24472;DHT22;12636;50.852;5.676;2024-01-30T07:31:43;10.90;99.90
24472;DHT22;12636;50.852;5.676;2024-01-30T07:34:10;10.80;99.90
24472;DHT22;12636;50.852;5.676;2024-01-30T07:36:37;10.90;99.90
24472;DHT22;12636;50.852;5.676;2024-01-30T07:39:04;10.80;1.00
24472;DHT22;12636;50.852;5.676;2024-01-30T07:41:30;10.90;99.90
24472;DHT22;12636;50.852;5.676;2024-01-30T07:43:58;10.90;99.90
24472;DHT22;12636;50.852;5.676;2024-01-30T07:46:24;10.90;99.90
24472;DHT22;12636;50.852;5.676;2024-01-30T07:48:53;10.80;99.90
24472;DHT22;12636;50.852;5.676;2024-01-30T07:51:21;10.80;1.00
24472;DHT22;12636;50.852;5.676;2024-01-30T07:53:55;10.70;1.00
24472;DHT22;12636;50.852;5.676;2024-01-30T07:56:24;10.70;1.00
24472;DHT22;12636;50.852;5.676;2024-01-30T07:58:51;10.70;1.00
24472;DHT22;12636;50.852;5.676;2024-01-30T08:01:18;10.70;1.00
24472;DHT22;12636;50.852;5.676;2024-01-30T08:03:45;10.70;1.00
24472;DHT22;12636;50.852;5.676;2024-01-30T08:06:14;10.70;1.00
24472;DHT22;12636;50.852;5.676;2024-01-30T08:08:41;10.70;1.00
24472;DHT22;12636;50.852;5.676;2024-01-30T08:11:07;10.60;1.00
24472;DHT22;12636;50.852;5.676;2024-01-30T08:13:34;10.60;1.00
24472;DHT22;12636;50.852;5.676;2024-01-30T08:16:01;10.60;1.00
24472;DHT22;12636;50.852;5.676;2024-01-30T08:18:28;10.60;1.00
24472;DHT22;12636;50.852;5.676;2024-01-30T08:20:55;10.60;1.00
24472;DHT22;12636;50.852;5.676;2024-01-30T08:23:23;10.60;1.00
24472;DHT22;12636;50.852;5.676;2024-01-30T08:25:50;10.70;1.00
24472;DHT22;12636;50.852;5.676;2024-01-30T08:28:17;10.80;1.00
24472;DHT22;12636;50.852;5.676;2024-01-30T08:30:44;10.90;1.00
24472;DHT22;12636;50.852;5.676;2024-01-30T08:33:11;11.00;1.00
24472;DHT22;12636;50.852;5.676;2024-01-30T08:35:38;11.10;99.90
24472;DHT22;12636;50.852;5.676;2024-01-30T08:38:05;11.10;99.90
24472;DHT22;12636;50.852;5.676;2024-01-30T08:40:33;11.20;99.90
24472;DHT22;12636;50.852;5.676;2024-01-30T08:43:00;11.20;99.90
24472;DHT22;12636;50.852;5.676;2024-01-30T08:45:28;11.40;99.90
24472;DHT22;12636;50.852;5.676;2024-01-30T08:47:56;11.50;85.10
24472;DHT22;12636;50.852;5.676;2024-01-30T08:50:23;11.50;24.10
24472;DHT22;12636;50.852;5.676;2024-01-30T08:52:49;11.60;1.00
24472;DHT22;12636;50.852;5.676;2024-01-30T08:55:16;11.60;1.00
24472;DHT22;12636;50.852;5.676;2024-01-30T08:57:45;11.60;1.00
24472;DHT22;12636;50.852;5.676;2024-01-30T09:00:12;11.60;1.00
24472;DHT22;12636;50.852;5.676;2024-01-30T09:02:39;11.60;1.00
24472;DHT22;12636;50.852;5.676;2024-01-30T09:05:06;11.50;1.00
24472;DHT22;12636;50.852;5.676;2024-01-30T09:07:33;11.50;1.00
24472;DHT22;12636;50.852;5.676;2024-01-30T09:10:00;11.50;43.50
24472;DHT22;12636;50.852;5.676;2024-01-30T09:12:27;11.60;1.00
24472;DHT22;12636;50.852;5.676;2024-01-30T09:14:55;11.70;1.00
24472;DHT22;12636;50.852;5.676;2024-01-30T09:17:22;11.70;1.00
24472;DHT22;12636;50.852;5.676;2024-01-30T09:19:49;11.70;1.00
24472;DHT22;12636;50.852;5.676;2024-01-30T09:22:16;11.80;1.00
24472;DHT22;12636;50.852;5.676;2024-01-30T09:24:43;11.80;1.00
24472;DHT22;12636;50.852;5.676;2024-01-30T09:27:10;11.80;1.00
24472;DHT22;12636;50.852;5.676;2024-01-30T09:29:36;11.80;1.00
24472;DHT22;12636;50.852;5.676;2024-01-30T09:32:06;11.80;1.00
24472;DHT22;12636;50.852;5.676;2024-01-30T09:34:34;11.80;1.00
24472;DHT22;12636;50.852;5.676;2024-01-30T09:37:01;11.90;1.00
24472;DHT22;12636;50.852;5.676;2024-01-30T09:39:28;11.90;1.00
24472;DHT22;12636;50.852;5.676;2024-01-30T09:41:55;11.90;1.00
24472;DHT22;12636;50.852;5.676;2024-01-30T09:44:28;12.00;1.00
24472;DHT22;12636;50.852;5.676;2024-01-30T09:46:55;12.00;1.00
24472;DHT22;12636;50.852;5.676;2024-01-30T09:49:25;12.00;1.00
24472;DHT22;12636;50.852;5.676;2024-01-30T09:51:52;12.00;1.00
24472;DHT22;12636;50.852;5.676;2024-01-30T09:54:19;12.10;1.00
24472;DHT22;12636;50.852;5.676;2024-01-30T09:56:47;12.00;1.00
24472;DHT22;12636;50.852;5.676;2024-01-30T09:59:14;12.00;1.00
24472;DHT22;12636;50.852;5.676;2024-01-30T10:01:41;12.00;1.00
24472;DHT22;12636;50.852;5.676;2024-01-30T10:04:09;12.00;1.00
24472;DHT22;12636;50.852;5.676;2024-01-30T10:06:37;12.00;1.00
24472;DHT22;12636;50.852;5.676;2024-01-30T10:09:04;11.90;1.00
24472;DHT22;12636;50.852;5.676;2024-01-30T10:11:31;11.90;1.00
24472;DHT22;12636;50.852;5.676;2024-01-30T10:13:59;11.80;1.00
24472;DHT22;12636;50.852;5.676;2024-01-30T10:16:26;11.80;81.10
24472;DHT22;12636;50.852;5.676;2024-01-30T10:18:53;11.80;99.90
24472;DHT22;12636;50.852;5.676;2024-01-30T10:21:20;11.80;99.90
24472;DHT22;12636;50.852;5.676;2024-01-30T10:23:48;11.80;99.90
24472;DHT22;12636;50.852;5.676;2024-01-30T10:26:16;11.90;99.90
24472;DHT22;12636;50.852;5.676;2024-01-30T10:28:43;11.90;99.90
24472;DHT22;12636;50.852;5.676;2024-01-30T10:31:10;11.90;99.90
24472;DHT22;12636;50.852;5.676;2024-01-30T10:33:37;11.90;99.90
24472;DHT22;12636;50.852;5.676;2024-01-30T10:36:04;12.00;99.90
24472;DHT22;12636;50.852;5.676;2024-01-30T10:38:32;12.00;99.90
24472;DHT22;12636;50.852;5.676;2024-01-30T10:41:01;11.90;99.90
24472;DHT22;12636;50.852;5.676;2024-01-30T10:43:30;11.90;99.90
24472;DHT22;12636;50.852;5.676;2024-01-30T10:45:57;11.90;99.90
24472;DHT22;12636;50.852;5.676;2024-01-30T10:48:29;12.00;99.90
24472;DHT22;12636;50.852;5.676;2024-01-30T10:50:57;12.10;99.90
24472;DHT22;12636;50.852;5.676;2024-01-30T10:53:26;12.20;5.50
24472;DHT22;12636;50.852;5.676;2024-01-30T10:55:53;12.30;21.10
24472;DHT22;12636;50.852;5.676;2024-01-30T10:58:22;12.40;1.00
24472;DHT22;12636;50.852;5.676;2024-01-30T11:00:49;12.40;1.00
24472;DHT22;12636;50.852;5.676;2024-01-30T11:03:17;12.40;1.00
24472;DHT22;12636;50.852;5.676;2024-01-30T11:05:48;12.40;13.90
24472;DHT22;12636;50.852;5.676;2024-01-30T11:08:22;12.40;9.00
24472;DHT22;12636;50.852;5.676;2024-01-30T11:10:49;12.30;99.90
24472;DHT22;12636;50.852;5.676;2024-01-30T11:13:18;12.20;99.90
24472;DHT22;12636;50.852;5.676;2024-01-30T11:15:48;12.10;1.00
24472;DHT22;12636;50.852;5.676;2024-01-30T11:18:22;12.20;1.00
24472;DHT22;12636;50.852;5.676;2024-01-30T11:20:49;12.30;1.00
24472;DHT22;12636;50.852;5.676;2024-01-30T11:23:16;12.40;1.00
24472;DHT22;12636;50.852;5.676;2024-01-30T11:25:43;12.50;99.90
24472;DHT22;12636;50.852;5.676;2024-01-30T11:28:12;12.60;99.90
24472;DHT22;12636;50.852;5.676;2024-01-30T11:30:39;12.50;99.90
24472;DHT22;12636;50.852;5.676;2024-01-30T11:33:08;12.50;99.90
24472;DHT22;12636;50.852;5.676;2024-01-30T11:35:37;12.40;1.00
24472;DHT22;12636;50.852;5.676;2024-01-30T11:38:04;12.40;1.00
24472;DHT22;12636;50.852;5.676;2024-01-30T11:40:32;12.40;1.00
24472;DHT22;12636;50.852;5.676;2024-01-30T11:43:00;12.40;1.00
24472;DHT22;12636;50.852;5.676;2024-01-30T11:45:27;12.40;1.00
24472;DHT22;12636;50.852;5.676;2024-01-30T11:47:54;12.40;1.00
24472;DHT22;12636;50.852;5.676;2024-01-30T11:50:22;12.40;1.00
24472;DHT22;12636;50.852;5.676;2024-01-30T11:52:49;12.30;1.00
24472;DHT22;12636;50.852;5.676;2024-01-30T11:55:17;12.30;1.00
24472;DHT22;12636;50.852;5.676;2024-01-30T11:57:44;12.30;1.00
24472;DHT22;12636;50.852;5.676;2024-01-30T12:00:14;12.20;1.00
24472;DHT22;12636;50.852;5.676;2024-01-30T12:02:41;12.20;1.00
24472;DHT22;12636;50.852;5.676;2024-01-30T12:05:08;12.30;1.00
24472;DHT22;12636;50.852;5.676;2024-01-30T12:07:37;12.30;1.00
24472;DHT22;12636;50.852;5.676;2024-01-30T12:10:04;12.30;1.00
24472;DHT22;12636;50.852;5.676;2024-01-30T12:12:36;12.20;1.00
24472;DHT22;12636;50.852;5.676;2024-01-30T12:15:03;12.10;1.00
24472;DHT22;12636;50.852;5.676;2024-01-30T12:17:31;12.10;1.00
24472;DHT22;12636;50.852;5.676;2024-01-30T12:20:04;12.10;1.00
24472;DHT22;12636;50.852;5.676;2024-01-30T12:22:33;12.10;1.00
24472;DHT22;12636;50.852;5.676;2024-01-30T12:25:01;12.10;1.00
24472;DHT22;12636;50.852;5.676;2024-01-30T12:27:29;12.00;1.00
24472;DHT22;12636;50.852;5.676;2024-01-30T12:29:56;12.10;1.00
24472;DHT22;12636;50.852;5.676;2024-01-30T12:32:23;12.10;1.00
24472;DHT22;12636;50.852;5.676;2024-01-30T12:34:50;12.10;1.00
24472;DHT22;12636;50.852;5.676;2024-01-30T12:37:17;12.00;1.00
24472;DHT22;12636;50.852;5.676;2024-01-30T12:39:48;12.00;1.00
24472;DHT22;12636;50.852;5.676;2024-01-30T12:42:16;11.90;1.00
24472;DHT22;12636;50.852;5.676;2024-01-30T12:44:43;11.90;1.00
24472;DHT22;12636;50.852;5.676;2024-01-30T12:47:10;11.90;1.00
24472;DHT22;12636;50.852;5.676;2024-01-30T12:49:37;11.90;1.00
24472;DHT22;12636;50.852;5.676;2024-01-30T12:52:04;11.90;1.00
24472;DHT22;12636;50.852;5.676;2024-01-30T12:54:31;11.90;1.00
24472;DHT22;12636;50.852;5.676;2024-01-30T12:56:58;11.80;1.00
24472;DHT22;12636;50.852;5.676;2024-01-30T12:59:27;11.70;1.00
24472;DHT22;12636;50.852;5.676;2024-01-30T13:01:54;11.70;1.00
24472;DHT22;12636;50.852;5.676;2024-01-30T13:04:21;11.70;1.00
24472;DHT22;12636;50.852;5.676;2024-01-30T13:06:47;11.60;1.00
24472;DHT22;12636;50.852;5.676;2024-01-30T13:09:15;11.60;1.00
24472;DHT22;12636;50.852;5.676;2024-01-30T13:11:41;11.60;1.00
24472;DHT22;12636;50.852;5.676;2024-01-30T13:14:08;11.70;1.00
24472;DHT22;12636;50.852;5.676;2024-01-30T13:16:37;11.70;1.00
24472;DHT22;12636;50.852;5.676;2024-01-30T13:19:04;11.70;1.00
24472;DHT22;12636;50.852;5.676;2024-01-30T13:21:31;11.60;1.00
24472;DHT22;12636;50.852;5.676;2024-01-30T13:23:58;11.60;1.00
24472;DHT22;12636;50.852;5.676;2024-01-30T13:26:25;11.50;1.00
24472;DHT22;12636;50.852;5.676;2024-01-30T13:28:52;11.50;1.00
24472;DHT22;12636;50.852;5.676;2024-01-30T13:31:19;11.50;1.00
24472;DHT22;12636;50.852;5.676;2024-01-30T13:33:47;11.40;1.00
24472;DHT22;12636;50.852;5.676;2024-01-30T13:36:14;11.40;1.00
24472;DHT22;12636;50.852;5.676;2024-01-30T13:38:41;11.40;1.00
24472;DHT22;12636;50.852;5.676;2024-01-30T13:41:08;11.30;1.00
24472;DHT22;12636;50.852;5.676;2024-01-30T13:43:35;11.30;1.00
24472;DHT22;12636;50.852;5.676;2024-01-30T13:46:02;11.30;1.00
24472;DHT22;12636;50.852;5.676;2024-01-30T13:48:30;11.30;1.00
24472;DHT22;12636;50.852;5.676;2024-01-30T13:50:59;11.30;1.00
24472;DHT22;12636;50.852;5.676;2024-01-30T13:53:26;11.30;1.00
24472;DHT22;12636;50.852;5.676;2024-01-30T13:55:53;11.20;1.00
24472;DHT22;12636;50.852;5.676;2024-01-30T13:58:20;11.20;1.00
24472;DHT22;12636;50.852;5.676;2024-01-30T14:00:47;11.10;1.00
24472;DHT22;12636;50.852;5.676;2024-01-30T14:03:14;11.00;1.00
24472;DHT22;12636;50.852;5.676;2024-01-30T14:05:41;10.90;1.00
24472;DHT22;12636;50.852;5.676;2024-01-30T14:08:10;10.90;1.00
24472;DHT22;12636;50.852;5.676;2024-01-30T14:10:37;10.90;1.00
24472;DHT22;12636;50.852;5.676;2024-01-30T14:13:04;10.90;1.00
24472;DHT22;12636;50.852;5.676;2024-01-30T14:15:31;10.80;1.00
24472;DHT22;12636;50.852;5.676;2024-01-30T14:17:58;10.80;1.00
24472;DHT22;12636;50.852;5.676;2024-01-30T14:20:26;10.80;1.00
24472;DHT22;12636;50.852;5.676;2024-01-30T14:22:53;10.90;1.00
24472;DHT22;12636;50.852;5.676;2024-01-30T14:25:22;10.90;1.00
24472;DHT22;12636;50.852;5.676;2024-01-30T14:27:49;10.90;99.90
24472;DHT22;12636;50.852;5.676;2024-01-30T14:30:16;10.90;99.90
24472;DHT22;12636;50.852;5.676;2024-01-30T14:32:43;10.90;99.90
24472;DHT22;12636;50.852;5.676;2024-01-30T14:35:10;10.80;99.90
24472;DHT22;12636;50.852;5.676;2024-01-30T14:37:37;10.80;99.90
24472;DHT22;12636;50.852;5.676;2024-01-30T14:40:05;10.80;1.00
24472;DHT22;12636;50.852;5.676;2024-01-30T14:42:34;10.80;1.00
24472;DHT22;12636;50.852;5.676;2024-01-30T14:45:01;10.80;1.00
24472;DHT22;12636;50.852;5.676;2024-01-30T14:47:28;10.80;99.90
24472;DHT22;12636;50.852;5.676;2024-01-30T14:49:56;10.80;99.90
24472;DHT22;12636;50.852;5.676;2024-01-30T14:52:23;10.80;1.00
24472;DHT22;12636;50.852;5.676;2024-01-30T14:54:50;10.70;1.00
24472;DHT22;12636;50.852;5.676;2024-01-30T14:57:17;10.70;1.00
24472;DHT22;12636;50.852;5.676;2024-01-30T14:59:45;10.70;63.20
24472;DHT22;12636;50.852;5.676;2024-01-30T15:02:13;10.70;52.20
24472;DHT22;12636;50.852;5.676;2024-01-30T15:04:42;10.80;1.00
24472;DHT22;12636;50.852;5.676;2024-01-30T15:07:09;10.70;1.00
24472;DHT22;12636;50.852;5.676;2024-01-30T15:09:36;10.60;1.00
24472;DHT22;12636;50.852;5.676;2024-01-30T15:12:04;10.60;1.00
24472;DHT22;12636;50.852;5.676;2024-01-30T15:14:31;10.60;1.00
24472;DHT22;12636;50.852;5.676;2024-01-30T15:16:59;10.60;1.00
24472;DHT22;12636;50.852;5.676;2024-01-30T15:19:26;10.50;1.00
24472;DHT22;12636;50.852;5.676;2024-01-30T15:21:53;10.50;99.90
24472;DHT22;12636;50.852;5.676;2024-01-30T15:24:20;10.50;99.90
24472;DHT22;12636;50.852;5.676;2024-01-30T15:26:50;10.50;99.90
24472;DHT22;12636;50.852;5.676;2024-01-30T15:29:17;10.50;99.90
24472;DHT22;12636;50.852;5.676;2024-01-30T15:31:46;10.40;99.90
24472;DHT22;12636;50.852;5.676;2024-01-30T15:34:14;10.40;99.90
24472;DHT22;12636;50.852;5.676;2024-01-30T15:36:41;10.30;99.90
24472;DHT22;12636;50.852;5.676;2024-01-30T15:39:08;10.30;99.90
24472;DHT22;12636;50.852;5.676;2024-01-30T15:41:36;10.40;99.90
24472;DHT22;12636;50.852;5.676;2024-01-30T15:44:04;10.40;99.90